createdAt,value
2018-10-21T00:01:47.446Z,7.40
2018-10-21T00:04:14.610Z,7.53
2018-10-21T00:06:41.730Z,7.50
2018-10-21T00:09:10.380Z,7.80
2018-10-21T00:11:37.569Z,6.70
2018-10-21T00:14:04.845Z,7.57
2018-10-21T00:16:32.335Z,7.67
2018-10-21T00:18:59.530Z,7.57
2018-10-21T00:21:26.786Z,7.40
2018-10-21T00:23:54.170Z,7.80
2018-10-21T00:26:21.335Z,8.07
2018-10-21T00:28:48.802Z,7.60
2018-10-21T00:31:16.469Z,7.43
2018-10-21T00:33:44.743Z,8.27
2018-10-21T00:36:12.454Z,7.60
2018-10-21T00:38:40.294Z,7.90
2018-10-21T00:41:07.538Z,7.60
2018-10-21T00:43:34.785Z,6.60
2018-10-21T00:46:02.038Z,7.57
2018-10-21T00:48:29.239Z,7.70
2018-10-21T00:50:56.442Z,7.50
2018-10-21T00:53:23.586Z,7.83
2018-10-21T00:55:50.965Z,7.90
2018-10-21T00:58:18.320Z,7.87
2018-10-21T01:00:45.554Z,8.10
2018-10-21T01:03:12.810Z,8.57
2018-10-21T01:05:39.918Z,11.03
2018-10-21T01:08:07.074Z,8.57
2018-10-21T01:10:34.207Z,8.33
2018-10-21T01:13:01.380Z,7.60
2018-10-21T01:15:28.620Z,8.20
2018-10-21T01:17:55.774Z,7.87
2018-10-21T01:20:22.992Z,7.43
2018-10-21T01:22:50.206Z,7.80
2018-10-21T01:25:17.474Z,6.93
2018-10-21T01:27:44.649Z,7.17
2018-10-21T01:30:12.354Z,7.17
2018-10-21T01:32:39.525Z,7.00
2018-10-21T01:35:07.690Z,9.07
2018-10-21T01:37:34.893Z,7.47
2018-10-21T01:40:33.976Z,6.90
2018-10-21T01:43:01.510Z,7.40
2018-10-21T01:45:28.660Z,7.90
2018-10-21T01:47:57.542Z,6.67
2018-10-21T01:50:25.106Z,7.87
2018-10-21T01:52:52.361Z,7.40
2018-10-21T01:55:19.786Z,7.00
2018-10-21T01:57:46.991Z,7.43
2018-10-21T02:00:14.133Z,7.90
2018-10-21T02:02:41.353Z,8.77
2018-10-21T02:05:08.501Z,8.00
2018-10-21T02:07:35.700Z,7.93
2018-10-21T02:10:02.965Z,8.80
2018-10-21T02:12:30.147Z,7.70
2018-10-21T02:14:57.640Z,7.43
2018-10-21T02:17:24.766Z,7.93
2018-10-21T02:19:51.934Z,8.57
2018-10-21T02:22:19.060Z,7.47
2018-10-21T02:24:46.293Z,7.80
2018-10-21T02:27:13.796Z,7.20
2018-10-21T02:29:40.972Z,6.90
2018-10-21T02:32:08.259Z,7.43
2018-10-21T02:34:35.450Z,7.90
2018-10-21T02:37:02.567Z,8.30
2018-10-21T02:39:29.888Z,6.87
2018-10-21T02:41:57.067Z,6.90
2018-10-21T02:44:24.539Z,7.20
2018-10-21T02:46:54.626Z,8.00
2018-10-21T02:49:22.180Z,8.37
2018-10-21T02:51:54.966Z,8.07
2018-10-21T02:54:26.214Z,7.30
2018-10-21T02:56:53.599Z,7.30
2018-10-21T02:59:21.061Z,7.27
2018-10-21T03:01:48.154Z,7.47
2018-10-21T03:04:15.299Z,7.50
2018-10-21T03:06:42.439Z,8.00
2018-10-21T03:09:09.611Z,8.10
2018-10-21T03:11:36.747Z,7.60
2018-10-21T03:14:04.113Z,9.23
2018-10-21T03:16:31.287Z,8.37
2018-10-21T03:18:58.542Z,7.90
2018-10-21T03:21:25.706Z,8.43
2018-10-21T03:23:52.838Z,7.90
2018-10-21T03:26:20.071Z,8.50
2018-10-21T03:28:47.244Z,7.50
2018-10-21T03:31:14.373Z,6.97
2018-10-21T03:33:41.512Z,7.73
2018-10-21T03:36:08.678Z,7.80
2018-10-21T03:38:35.817Z,7.43
2018-10-21T03:41:03.023Z,7.47
2018-10-21T03:43:30.114Z,7.70
2018-10-21T03:45:57.261Z,7.30
2018-10-21T03:48:24.541Z,7.37
2018-10-21T03:50:51.706Z,8.10
2018-10-21T03:53:18.897Z,8.20
2018-10-21T03:55:46.007Z,7.30
2018-10-21T03:58:13.399Z,7.33
2018-10-21T04:00:40.574Z,7.70
2018-10-21T04:03:08.004Z,7.50
2018-10-21T04:05:35.449Z,7.50
2018-10-21T04:08:02.735Z,7.40
2018-10-21T04:10:29.870Z,7.30
2018-10-21T04:12:57.517Z,7.90
2018-10-21T04:15:24.673Z,8.17
2018-10-21T04:17:52.142Z,8.20
2018-10-21T04:20:19.396Z,7.50
2018-10-21T04:22:56.233Z,7.90
2018-10-21T04:25:24.407Z,7.30
2018-10-21T04:27:52.393Z,8.20
2018-10-21T04:30:27.493Z,8.33
2018-10-21T04:32:59.666Z,8.00
2018-10-21T04:35:26.878Z,7.70
2018-10-21T04:40:12.764Z,6.97
2018-10-21T04:42:39.881Z,7.37
2018-10-21T04:45:07.683Z,7.77
2018-10-21T04:47:34.882Z,6.90
2018-10-21T04:50:02.085Z,7.30
2018-10-21T04:52:30.122Z,7.20
2018-10-21T04:55:01.883Z,7.13
2018-10-21T04:57:29.043Z,7.80
2018-10-21T04:59:56.292Z,8.10
2018-10-21T05:02:23.476Z,7.70
2018-10-21T05:04:50.638Z,9.30
2018-10-21T05:07:17.751Z,7.77
2018-10-21T05:09:44.978Z,7.70
2018-10-21T05:12:12.077Z,8.30
2018-10-21T05:14:39.294Z,8.10
2018-10-21T05:17:06.431Z,8.27
2018-10-21T05:19:33.602Z,8.10
2018-10-21T05:22:00.885Z,8.40
2018-10-21T05:24:28.006Z,8.07
2018-10-21T05:26:55.170Z,7.70
2018-10-21T05:29:22.316Z,8.10
2018-10-21T05:31:49.635Z,7.63
2018-10-21T05:34:16.884Z,7.73
2018-10-21T05:36:43.968Z,8.13
2018-10-21T05:39:11.259Z,7.60
2018-10-21T05:41:38.749Z,7.07
2018-10-21T05:44:06.015Z,8.53
2018-10-21T05:46:47.652Z,7.40
2018-10-21T05:49:14.959Z,7.73
2018-10-21T05:51:44.218Z,7.80
2018-10-21T05:54:12.528Z,8.10
2018-10-21T05:56:42.027Z,7.07
2018-10-21T05:59:09.253Z,8.00
2018-10-21T06:01:37.063Z,8.70
2018-10-21T06:04:04.372Z,8.40
2018-10-21T06:06:32.012Z,7.77
2018-10-21T06:08:59.231Z,7.73
2018-10-21T06:11:26.435Z,8.50
2018-10-21T06:13:53.614Z,7.70
2018-10-21T06:16:20.845Z,7.03
2018-10-21T06:18:47.946Z,7.60
2018-10-21T06:21:15.083Z,7.70
2018-10-21T06:23:42.334Z,7.63
2018-10-21T06:26:09.465Z,6.93
2018-10-21T06:28:36.635Z,7.67
2018-10-21T06:31:03.790Z,7.27
2018-10-21T06:33:30.993Z,7.80
2018-10-21T06:35:58.473Z,7.23
2018-10-21T06:38:25.623Z,7.40
2018-10-21T06:40:52.755Z,7.63
2018-10-21T06:43:19.872Z,7.50
2018-10-21T06:45:47.004Z,7.50
2018-10-21T06:48:14.205Z,7.80
2018-10-21T06:50:41.394Z,7.83
2018-10-21T06:53:08.521Z,8.50
2018-10-21T06:55:35.797Z,8.27
2018-10-21T06:58:03.135Z,7.80
2018-10-21T07:00:30.364Z,7.90
2018-10-21T07:02:57.703Z,9.00
2018-10-21T07:05:36.294Z,8.33
2018-10-21T07:08:03.677Z,8.13
2018-10-21T07:10:31.687Z,7.93
2018-10-21T07:12:59.089Z,8.00
2018-10-21T07:15:26.408Z,7.83
2018-10-21T07:17:53.418Z,8.53
2018-10-21T07:20:20.602Z,8.33
2018-10-21T07:22:47.762Z,9.33
2018-10-21T07:25:15.477Z,8.70
2018-10-21T07:27:42.670Z,8.30
2018-10-21T07:30:11.297Z,8.90
2018-10-21T07:32:39.216Z,9.00
2018-10-21T07:35:07.250Z,8.70
2018-10-21T07:37:34.505Z,8.50
2018-10-21T07:40:01.677Z,9.47
2018-10-21T07:42:28.862Z,8.77
2018-10-21T07:44:56.047Z,9.70
2018-10-21T07:47:23.206Z,9.10
2018-10-21T07:49:50.361Z,9.03
2018-10-21T07:52:17.557Z,10.03
2018-10-21T07:54:45.941Z,9.53
2018-10-21T07:57:13.876Z,8.97
2018-10-21T07:59:41.038Z,8.77
2018-10-21T08:02:08.262Z,10.00
2018-10-21T08:04:35.502Z,10.37
2018-10-21T08:07:14.109Z,9.27
2018-10-21T08:09:41.325Z,10.03
2018-10-21T08:12:08.513Z,10.70
2018-10-21T08:14:35.740Z,11.30
2018-10-21T08:17:03.008Z,10.13
2018-10-21T08:19:30.169Z,10.50
2018-10-21T08:21:57.453Z,11.20
2018-10-21T08:24:24.703Z,11.77
2018-10-21T08:26:51.868Z,12.10
2018-10-21T08:29:19.060Z,11.53
2018-10-21T08:31:46.219Z,11.83
2018-10-21T08:34:13.388Z,13.03
2018-10-21T08:36:40.507Z,11.80
2018-10-21T08:39:07.789Z,12.40
2018-10-21T08:41:35.040Z,12.17
2018-10-21T08:44:02.456Z,13.10
2018-10-21T08:46:29.743Z,13.07
2018-10-21T08:48:57.014Z,11.80
2018-10-21T08:51:25.112Z,11.70
2018-10-21T08:53:52.324Z,12.40
2018-10-21T08:56:19.558Z,11.27
2018-10-21T08:58:46.727Z,11.80
2018-10-21T09:01:14.070Z,12.90
2018-10-21T09:03:41.217Z,12.27
2018-10-21T09:06:08.550Z,13.03
2018-10-21T09:08:35.718Z,12.27
2018-10-21T09:11:03.004Z,12.27
2018-10-21T09:13:30.256Z,12.23
2018-10-21T09:15:57.487Z,11.97
2018-10-21T09:18:24.774Z,13.60
2018-10-21T09:20:52.090Z,13.43
2018-10-21T09:23:19.292Z,11.60
2018-10-21T09:25:46.462Z,11.93
2018-10-21T09:28:13.824Z,12.10
2018-10-21T09:30:40.966Z,10.60
2018-10-21T09:33:08.163Z,10.00
2018-10-21T09:35:35.419Z,11.90
2018-10-21T09:38:02.741Z,11.07
2018-10-21T09:40:29.927Z,11.57
2018-10-21T09:42:57.222Z,11.47
2018-10-21T09:45:24.469Z,10.47
2018-10-21T09:47:51.658Z,11.07
2018-10-21T09:50:18.919Z,10.70
2018-10-21T09:52:46.503Z,8.80
2018-10-21T09:55:18.490Z,8.70
2018-10-21T09:57:46.566Z,8.37
2018-10-21T10:00:19.602Z,7.33
2018-10-21T10:02:52.489Z,7.33
2018-10-21T10:05:19.931Z,8.00
2018-10-21T10:07:47.658Z,6.20
2018-10-21T10:10:15.042Z,5.60
2018-10-21T10:12:43.339Z,5.40
2018-10-21T10:15:10.663Z,4.87
2018-10-21T10:17:38.028Z,6.03
2018-10-21T10:20:06.757Z,5.27
2018-10-21T10:22:33.962Z,3.87
2018-10-21T10:25:01.464Z,4.10
2018-10-21T10:27:28.642Z,3.80
2018-10-21T10:29:56.262Z,4.00
2018-10-21T10:32:23.486Z,3.97
2018-10-21T10:34:50.833Z,4.10
2018-10-21T10:37:18.049Z,4.00
2018-10-21T10:39:45.861Z,3.23
2018-10-21T10:42:14.012Z,2.97
2018-10-21T10:44:41.186Z,3.20
2018-10-21T10:47:08.362Z,3.17
2018-10-21T10:49:35.585Z,2.77
2018-10-21T10:52:02.843Z,2.13
2018-10-21T10:54:30.316Z,2.40
2018-10-21T10:56:57.535Z,2.43
2018-10-21T10:59:25.704Z,2.43
2018-10-21T11:01:53.028Z,2.30
2018-10-21T11:04:20.230Z,2.70
2018-10-21T11:06:47.377Z,2.50
2018-10-21T11:09:14.614Z,2.43
2018-10-21T11:11:41.785Z,2.50
2018-10-21T11:14:08.955Z,2.07
2018-10-21T11:16:36.331Z,2.37
2018-10-21T11:19:03.850Z,2.33
2018-10-21T11:21:30.994Z,2.20
2018-10-21T11:23:58.195Z,2.63
2018-10-21T11:26:25.366Z,2.40
2018-10-21T11:28:52.705Z,2.00
2018-10-21T11:31:19.898Z,2.27
2018-10-21T11:33:47.078Z,1.83
2018-10-21T11:36:16.878Z,2.33
2018-10-21T11:38:44.073Z,1.50
2018-10-21T11:41:11.657Z,2.47
2018-10-21T11:43:38.938Z,1.93
2018-10-21T11:46:06.642Z,1.60
2018-10-21T11:48:33.851Z,1.90
2018-10-21T11:51:01.055Z,1.83
2018-10-21T11:53:28.443Z,1.73
2018-10-21T11:55:55.630Z,1.67
2018-10-21T11:58:22.961Z,1.60
2018-10-21T12:00:50.189Z,2.43
2018-10-21T12:03:17.366Z,1.70
2018-10-21T12:05:44.555Z,2.00
2018-10-21T12:08:12.219Z,2.00
2018-10-21T12:10:39.413Z,1.80
2018-10-21T12:13:06.682Z,2.00
2018-10-21T12:15:34.525Z,1.93
2018-10-21T12:18:01.780Z,1.37
2018-10-21T12:20:29.160Z,1.60
2018-10-21T12:22:56.764Z,1.10
2018-10-21T12:25:24.084Z,1.80
2018-10-21T12:27:51.468Z,1.60
2018-10-21T12:30:18.835Z,1.27
2018-10-21T12:32:46.977Z,1.73
2018-10-21T12:35:14.196Z,2.00
2018-10-21T12:37:41.761Z,1.73
2018-10-21T12:40:09.874Z,1.30
2018-10-21T12:42:37.753Z,1.63
2018-10-21T12:45:06.725Z,1.37
2018-10-21T12:47:33.950Z,1.30
2018-10-21T12:50:01.192Z,1.73
2018-10-21T12:52:28.436Z,1.43
2018-10-21T12:54:55.733Z,1.60
2018-10-21T12:57:23.132Z,1.30
2018-10-21T12:59:50.622Z,1.30
2018-10-21T13:02:17.980Z,1.47
2018-10-21T13:04:45.137Z,1.50
2018-10-21T13:07:12.462Z,1.50
2018-10-21T13:09:39.852Z,1.37
2018-10-21T13:12:07.157Z,1.40
2018-10-21T13:14:34.494Z,1.43
2018-10-21T13:17:01.706Z,1.97
2018-10-21T13:19:28.895Z,1.60
2018-10-21T13:21:56.300Z,1.90
2018-10-21T13:24:23.452Z,1.70
2018-10-21T13:26:50.700Z,2.00
2018-10-21T13:29:18.233Z,1.93
2018-10-21T13:31:45.531Z,1.90
2018-10-21T13:34:12.798Z,4.10
2018-10-21T13:36:39.994Z,2.40
2018-10-21T13:39:11.326Z,2.67
2018-10-21T13:41:38.538Z,2.80
2018-10-21T13:44:05.790Z,2.33
2018-10-21T13:46:33.037Z,2.27
2018-10-21T13:49:00.214Z,2.43
2018-10-21T13:51:27.553Z,2.70
2018-10-21T13:53:54.844Z,3.53
2018-10-21T13:56:22.175Z,2.80
2018-10-21T13:58:49.525Z,2.70
2018-10-21T14:01:16.986Z,2.70
2018-10-21T14:03:44.131Z,3.00
2018-10-21T14:06:11.342Z,4.23
2018-10-21T14:08:38.647Z,2.70
2018-10-21T14:11:05.973Z,3.13
2018-10-21T14:13:33.340Z,2.80
2018-10-21T14:16:00.664Z,3.20
2018-10-21T14:18:27.989Z,3.23
2018-10-21T14:20:55.418Z,2.80
2018-10-21T14:23:22.754Z,3.30
2018-10-21T14:25:49.937Z,4.13
2018-10-21T14:28:17.475Z,3.17
2018-10-21T14:30:44.748Z,3.30
2018-10-21T14:33:12.106Z,3.20
2018-10-21T14:35:39.491Z,3.20
2018-10-21T14:38:06.793Z,3.00
2018-10-21T14:40:33.893Z,3.60
2018-10-21T14:43:01.176Z,2.90
2018-10-21T14:45:29.061Z,3.37
2018-10-21T14:47:56.373Z,3.40
2018-10-21T14:50:23.727Z,3.47
2018-10-21T14:52:51.112Z,3.03
2018-10-21T14:55:18.344Z,3.47
2018-10-21T14:57:45.578Z,2.90
2018-10-21T15:00:13.422Z,3.10
2018-10-21T15:02:40.935Z,3.20
2018-10-21T15:05:10.366Z,3.43
2018-10-21T15:07:38.015Z,3.00
2018-10-21T15:10:06.425Z,4.10
2018-10-21T15:12:33.577Z,2.93
2018-10-21T15:15:01.482Z,4.50
2018-10-21T15:17:28.664Z,3.20
2018-10-21T15:19:55.965Z,3.73
2018-10-21T15:22:23.186Z,3.90
2018-10-21T15:24:50.705Z,4.27
2018-10-21T15:27:18.115Z,3.57
2018-10-21T15:29:45.410Z,5.20
2018-10-21T15:32:12.655Z,4.77
2018-10-21T15:34:39.755Z,4.20
2018-10-21T15:37:07.004Z,4.03
2018-10-21T15:39:34.268Z,4.10
2018-10-21T15:42:02.068Z,4.10
2018-10-21T15:44:29.167Z,3.93
2018-10-21T15:46:56.341Z,3.37
2018-10-21T15:49:23.575Z,4.97
2018-10-21T15:51:50.873Z,3.80
2018-10-21T15:54:18.812Z,4.30
2018-10-21T15:56:48.036Z,3.90
2018-10-21T15:59:15.332Z,5.30
2018-10-21T16:01:43.731Z,4.60
2018-10-21T16:04:11.053Z,3.90
2018-10-21T16:06:39.392Z,4.23
2018-10-21T16:09:08.798Z,4.00
2018-10-21T16:11:36.411Z,3.87
2018-10-21T16:14:04.548Z,4.17
2018-10-21T16:16:32.072Z,3.77
2018-10-21T16:18:59.369Z,3.63
2018-10-21T16:21:26.718Z,3.50
2018-10-21T16:23:54.046Z,3.80
2018-10-21T16:26:21.495Z,3.73
2018-10-21T16:28:48.714Z,4.30
2018-10-21T16:31:15.952Z,4.00
2018-10-21T16:33:43.564Z,4.33
2018-10-21T16:36:11.074Z,3.70
2018-10-21T16:38:38.291Z,4.83
2018-10-21T16:41:05.998Z,4.60
2018-10-21T16:43:33.260Z,5.80
2018-10-21T16:46:00.629Z,6.40
2018-10-21T16:48:27.980Z,5.77
2018-10-21T16:50:55.240Z,6.47
2018-10-21T16:53:23.019Z,5.10
2018-10-21T16:55:50.817Z,5.00
2018-10-21T16:58:18.378Z,5.17
2018-10-21T17:00:46.018Z,5.40
2018-10-21T17:03:13.182Z,5.87
2018-10-21T17:05:40.452Z,7.00
2018-10-21T17:08:08.041Z,7.83
2018-10-21T17:10:36.255Z,6.40
2018-10-21T17:13:03.369Z,6.40
2018-10-21T17:15:30.649Z,6.20
2018-10-21T17:17:57.880Z,7.73
2018-10-21T17:20:25.160Z,7.73
2018-10-21T17:22:52.433Z,8.83
2018-10-21T17:25:19.798Z,16.33
2018-10-21T17:27:46.917Z,10.63
2018-10-21T17:30:16.209Z,7.10
2018-10-21T17:32:43.853Z,7.37
2018-10-21T17:35:11.145Z,7.00
2018-10-21T17:37:38.791Z,7.97
2018-10-21T17:40:06.679Z,8.77
2018-10-21T17:42:33.977Z,8.80
2018-10-21T17:45:01.312Z,8.50
2018-10-21T17:47:28.479Z,8.43
2018-10-21T17:49:56.198Z,7.97
2018-10-21T17:52:23.416Z,9.30
2018-10-21T17:54:50.649Z,8.47
2018-10-21T17:57:18.082Z,7.40
2018-10-21T17:59:45.669Z,6.43
2018-10-21T18:02:13.013Z,6.00
2018-10-21T18:04:40.270Z,6.20
2018-10-21T18:09:45.868Z,6.00
2018-10-21T18:12:13.126Z,7.00
2018-10-21T18:14:40.352Z,5.90
2018-10-21T18:17:07.608Z,4.70
2018-10-21T18:19:34.856Z,4.63
2018-10-21T18:22:02.232Z,4.23
2018-10-21T18:24:29.419Z,4.63
2018-10-21T18:26:56.641Z,4.90
2018-10-21T18:29:24.027Z,4.97
2018-10-21T18:31:51.354Z,4.63
2018-10-21T18:34:18.506Z,4.83
2018-10-21T18:36:45.762Z,4.40
2018-10-21T18:39:12.963Z,4.77
2018-10-21T18:41:40.310Z,4.50
2018-10-21T18:44:08.337Z,3.97
2018-10-21T18:46:35.659Z,5.10
2018-10-21T18:49:02.947Z,5.60
2018-10-21T18:51:30.260Z,6.17
2018-10-21T18:53:57.606Z,6.17
2018-10-21T18:56:24.841Z,6.67
2018-10-21T18:58:52.101Z,5.90
2018-10-21T19:01:19.330Z,4.70
2018-10-21T19:03:46.730Z,4.10
2018-10-21T19:06:14.055Z,3.83
2018-10-21T19:08:41.508Z,4.50
2018-10-21T19:11:08.829Z,4.73
2018-10-21T19:13:36.088Z,5.30
2018-10-21T19:16:03.672Z,4.70
2018-10-21T19:18:30.850Z,4.90
2018-10-21T19:20:58.017Z,4.23
2018-10-21T19:23:25.329Z,4.60
2018-10-21T19:25:52.722Z,4.73
2018-10-21T19:28:19.969Z,4.80
2018-10-21T19:30:47.259Z,4.43
2018-10-21T19:33:14.419Z,4.93
2018-10-21T19:35:41.630Z,4.77
2018-10-21T19:38:08.768Z,6.10
2018-10-21T19:40:35.980Z,6.63
2018-10-21T19:43:03.157Z,6.30
2018-10-21T19:45:30.349Z,5.97
2018-10-21T19:47:57.649Z,4.73
2018-10-21T19:50:24.801Z,4.87
2018-10-21T19:52:52.002Z,4.60
2018-10-21T19:55:19.300Z,4.70
2018-10-21T19:57:46.429Z,4.40
2018-10-21T20:00:15.062Z,4.50
2018-10-21T20:02:42.642Z,4.07
2018-10-21T20:05:10.230Z,4.60
2018-10-21T20:07:37.383Z,3.70
2018-10-21T20:10:06.564Z,4.10
2018-10-21T20:12:33.684Z,4.10
2018-10-21T20:15:00.907Z,3.90
2018-10-21T20:17:28.074Z,4.27
2018-10-21T20:19:55.283Z,4.10
2018-10-21T20:22:22.563Z,4.13
2018-10-21T20:24:49.764Z,3.77
2018-10-21T20:27:16.940Z,4.37
2018-10-21T20:29:44.090Z,4.10
2018-10-21T20:32:11.398Z,4.30
2018-10-21T20:34:38.580Z,4.83
2018-10-21T20:37:05.818Z,3.90
2018-10-21T20:39:33.026Z,3.90
2018-10-21T20:42:00.313Z,4.23
2018-10-21T20:44:27.553Z,4.30
2018-10-21T20:46:54.751Z,3.60
2018-10-21T20:49:21.954Z,4.37
2018-10-21T20:51:49.181Z,4.73
2018-10-21T20:54:16.392Z,4.30
2018-10-21T20:56:43.555Z,4.20
2018-10-21T20:59:10.789Z,4.27
2018-10-21T21:01:38.071Z,4.87
2018-10-21T21:04:05.373Z,5.50
2018-10-21T21:06:32.651Z,4.60
2018-10-21T21:09:00.146Z,5.13
2018-10-21T21:11:27.333Z,5.70
2018-10-21T21:13:54.518Z,5.23
2018-10-21T21:16:21.794Z,5.90
2018-10-21T21:18:48.970Z,5.70
2018-10-21T21:21:16.227Z,4.23
2018-10-21T21:23:43.443Z,4.57
2018-10-21T21:26:10.606Z,3.73
2018-10-21T21:28:37.922Z,4.03
2018-10-21T21:31:05.110Z,3.43
2018-10-21T21:33:32.529Z,3.57
2018-10-21T21:35:59.722Z,5.20
2018-10-21T21:38:26.945Z,3.30
2018-10-21T21:40:54.286Z,2.93
2018-10-21T21:43:21.642Z,4.30
2018-10-21T21:45:49.017Z,3.43
2018-10-21T21:48:16.347Z,3.90
2018-10-21T21:50:43.603Z,4.10
2018-10-21T21:53:10.882Z,4.10
2018-10-21T21:55:38.197Z,3.60
2018-10-21T21:58:05.576Z,3.93
2018-10-21T22:00:32.734Z,3.93
2018-10-21T22:02:59.955Z,4.87
2018-10-21T22:05:27.314Z,4.17
2018-10-21T22:07:54.593Z,4.00
2018-10-21T22:10:21.827Z,4.20
2018-10-21T22:12:49.006Z,4.10
2018-10-21T22:15:16.214Z,4.47
2018-10-21T22:17:43.483Z,4.50
2018-10-21T22:20:11.792Z,4.73
2018-10-21T22:22:39.040Z,4.60
2018-10-21T22:25:06.269Z,4.57
2018-10-21T22:27:33.577Z,4.13
2018-10-21T22:30:00.933Z,4.67
2018-10-21T22:32:28.241Z,4.73
2018-10-21T22:34:55.598Z,4.83
2018-10-21T22:37:22.777Z,4.10
2018-10-21T22:39:49.947Z,3.80
2018-10-21T22:42:17.252Z,4.20
2018-10-21T22:44:44.340Z,4.10
2018-10-21T22:47:11.546Z,3.50
2018-10-21T22:49:38.770Z,3.60
2018-10-21T22:52:06.164Z,3.47
2018-10-21T22:54:33.306Z,3.23
2018-10-21T22:57:00.482Z,3.57
2018-10-21T22:59:27.715Z,3.80
2018-10-21T23:01:54.968Z,3.93
2018-10-21T23:04:22.169Z,4.10
2018-10-21T23:06:49.462Z,3.87
2018-10-21T23:09:16.745Z,4.40
2018-10-21T23:11:43.943Z,3.97
2018-10-21T23:14:11.463Z,4.20
2018-10-21T23:16:38.722Z,4.40
2018-10-21T23:19:17.458Z,4.27
2018-10-21T23:21:44.678Z,4.90
2018-10-21T23:24:11.927Z,4.23
2018-10-21T23:26:39.051Z,3.83
2018-10-21T23:29:06.234Z,4.20
2018-10-21T23:31:33.379Z,4.37
2018-10-21T23:34:00.580Z,4.70
2018-10-21T23:36:27.829Z,4.20
2018-10-21T23:38:55.082Z,4.20
2018-10-21T23:41:22.379Z,4.57
2018-10-21T23:43:49.559Z,4.33
2018-10-21T23:46:16.913Z,4.33
2018-10-21T23:48:44.066Z,4.20
2018-10-21T23:51:11.283Z,4.10
2018-10-21T23:53:38.502Z,4.27
2018-10-21T23:56:05.691Z,4.60
2018-10-21T23:58:32.836Z,4.30
